sensor_id;sensor_type;location;lat;lon;timestamp;pressure;altitude;pressure_sealevel;temperature;humidity
61674;BME280;47573;43.832;5.974;2023-03-23T00:00:29;95185.03;;;24.97;57.73
61674;BME280;47573;43.832;5.974;2023-03-23T00:07:11;95185.53;;;24.94;57.67
61674;BME280;47573;43.832;5.974;2023-03-23T00:13:52;95181.09;;;24.88;57.89
61674;BME280;47573;43.832;5.974;2023-03-23T00:20:33;95178.94;;;24.90;57.49
61674;BME280;47573;43.832;5.974;2023-03-23T00:27:14;95184.91;;;24.87;57.60
61674;BME280;47573;43.832;5.974;2023-03-23T00:33:55;95189.22;;;24.83;57.66
61674;BME280;47573;43.832;5.974;2023-03-23T00:40:35;95179.97;;;24.84;57.82
61674;BME280;47573;43.832;5.974;2023-03-23T00:47:17;95180.19;;;24.78;57.57
61674;BME280;47573;43.832;5.974;2023-03-23T00:53:58;95186.47;;;24.78;57.41
61674;BME280;47573;43.832;5.974;2023-03-23T01:00:38;95174.03;;;24.70;57.85
61674;BME280;47573;43.832;5.974;2023-03-23T01:07:20;95167.25;;;24.73;57.79
61674;BME280;47573;43.832;5.974;2023-03-23T01:14:01;95155.50;;;24.72;57.58
61674;BME280;47573;43.832;5.974;2023-03-23T01:20:41;95152.75;;;24.67;57.38
61674;BME280;47573;43.832;5.974;2023-03-23T01:27:23;95145.13;;;24.69;57.14
61674;BME280;47573;43.832;5.974;2023-03-23T01:34:04;95151.06;;;24.66;57.36
61674;BME280;47573;43.832;5.974;2023-03-23T01:40:46;95146.97;;;24.64;57.11
61674;BME280;47573;43.832;5.974;2023-03-23T01:47:28;95142.28;;;24.59;57.56
61674;BME280;47573;43.832;5.974;2023-03-23T01:54:11;95133.25;;;24.59;57.43
61674;BME280;47573;43.832;5.974;2023-03-23T02:00:53;95133.75;;;24.56;57.33
61674;BME280;47573;43.832;5.974;2023-03-23T02:07:36;95133.47;;;24.52;57.64
61674;BME280;47573;43.832;5.974;2023-03-23T02:14:17;95108.34;;;24.50;57.23
61674;BME280;47573;43.832;5.974;2023-03-23T02:28:19;95092.72;;;24.46;57.33
61674;BME280;47573;43.832;5.974;2023-03-23T02:35:12;95097.63;;;24.44;57.48
61674;BME280;47573;43.832;5.974;2023-03-23T02:41:59;95088.88;;;24.42;57.52
61674;BME280;47573;43.832;5.974;2023-03-23T02:48:42;95086.13;;;24.42;57.41
61674;BME280;47573;43.832;5.974;2023-03-23T02:55:25;95085.31;;;24.41;57.47
61674;BME280;47573;43.832;5.974;2023-03-23T03:02:07;95090.72;;;24.36;57.55
61674;BME280;47573;43.832;5.974;2023-03-23T03:08:52;95068.00;;;24.31;57.70
61674;BME280;47573;43.832;5.974;2023-03-23T03:15:38;95065.81;;;24.28;57.66
61674;BME280;47573;43.832;5.974;2023-03-23T03:22:21;95071.25;;;24.28;57.62
61674;BME280;47573;43.832;5.974;2023-03-23T03:29:03;95067.97;;;24.26;57.59
61674;BME280;47573;43.832;5.974;2023-03-23T03:35:45;95060.84;;;24.25;57.76
61674;BME280;47573;43.832;5.974;2023-03-23T03:42:26;95065.16;;;24.21;57.60
61674;BME280;47573;43.832;5.974;2023-03-23T03:49:08;95074.44;;;24.20;57.37
61674;BME280;47573;43.832;5.974;2023-03-23T03:55:50;95073.31;;;24.16;57.50
61674;BME280;47573;43.832;5.974;2023-03-23T04:02:31;95059.13;;;24.14;57.31
61674;BME280;47573;43.832;5.974;2023-03-23T04:09:11;95066.19;;;24.15;57.33
61674;BME280;47573;43.832;5.974;2023-03-23T04:15:53;95069.19;;;24.13;57.68
61674;BME280;47573;43.832;5.974;2023-03-23T04:22:33;95045.41;;;24.09;57.55
61674;BME280;47573;43.832;5.974;2023-03-23T04:29:14;95051.38;;;24.06;57.52
61674;BME280;47573;43.832;5.974;2023-03-23T04:35:59;95045.94;;;24.06;57.33
61674;BME280;47573;43.832;5.974;2023-03-23T04:42:40;95045.94;;;24.06;57.14
61674;BME280;47573;43.832;5.974;2023-03-23T04:49:21;95055.69;;;24.02;57.35
61674;BME280;47573;43.832;5.974;2023-03-23T04:56:03;95059.97;;;23.97;57.89
61674;BME280;47573;43.832;5.974;2023-03-23T05:02:44;95061.63;;;23.98;57.61
61674;BME280;47573;43.832;5.974;2023-03-23T05:09:25;95058.78;;;23.88;58.08
61674;BME280;47573;43.832;5.974;2023-03-23T05:16:07;95068.28;;;23.86;57.98
61674;BME280;47573;43.832;5.974;2023-03-23T05:22:48;95077.03;;;23.88;57.86
61674;BME280;47573;43.832;5.974;2023-03-23T05:29:29;95071.91;;;23.91;57.58
61674;BME280;47573;43.832;5.974;2023-03-23T05:36:11;95078.94;;;23.87;57.63
61674;BME280;47573;43.832;5.974;2023-03-23T05:42:52;95071.28;;;23.84;57.84
61674;BME280;47573;43.832;5.974;2023-03-23T05:49:32;95068.47;;;23.79;58.21
61674;BME280;47573;43.832;5.974;2023-03-23T05:56:14;95078.25;;;23.75;57.91
61674;BME280;47573;43.832;5.974;2023-03-23T06:02:55;95087.00;;;23.77;58.14
61674;BME280;47573;43.832;5.974;2023-03-23T06:09:36;95088.09;;;23.76;57.90
61674;BME280;47573;43.832;5.974;2023-03-23T06:16:18;95103.88;;;23.74;58.07
61674;BME280;47573;43.832;5.974;2023-03-23T06:22:58;95123.53;;;23.76;57.77
61674;BME280;47573;43.832;5.974;2023-03-23T06:29:39;95137.41;;;23.75;58.00
61674;BME280;47573;43.832;5.974;2023-03-23T06:36:20;95140.19;;;23.80;57.69
61674;BME280;47573;43.832;5.974;2023-03-23T06:43:01;95144.78;;;23.74;57.98
61674;BME280;47573;43.832;5.974;2023-03-23T06:49:42;95160.56;;;23.72;58.22
61674;BME280;47573;43.832;5.974;2023-03-23T06:56:24;95163.69;;;23.64;58.48
61674;BME280;47573;43.832;5.974;2023-03-23T07:03:04;95184.53;;;23.70;58.31
61674;BME280;47573;43.832;5.974;2023-03-23T07:09:45;95186.00;;;23.61;58.96
61674;BME280;47573;43.832;5.974;2023-03-23T07:16:27;95187.16;;;23.65;58.95
61674;BME280;47573;43.832;5.974;2023-03-23T07:23:07;95175.50;;;23.70;58.69
61674;BME280;47573;43.832;5.974;2023-03-23T07:29:48;95163.84;;;23.74;58.49
61674;BME280;47573;43.832;5.974;2023-03-23T07:36:30;95164.34;;;23.71;58.30
61674;BME280;47573;43.832;5.974;2023-03-23T07:43:10;95161.63;;;23.71;58.65
61674;BME280;47573;43.832;5.974;2023-03-23T07:49:51;95173.03;;;23.68;58.75
61674;BME280;47573;43.832;5.974;2023-03-23T07:56:33;95156.75;;;23.73;58.54
61674;BME280;47573;43.832;5.974;2023-03-23T08:03:15;95153.56;;;23.81;58.48
61674;BME280;47573;43.832;5.974;2023-03-23T08:09:55;95155.25;;;23.82;57.97
61674;BME280;47573;43.832;5.974;2023-03-23T08:16:37;95154.66;;;23.80;58.30
61674;BME280;47573;43.832;5.974;2023-03-23T08:23:18;95144.34;;;23.82;57.97
61674;BME280;47573;43.832;5.974;2023-03-23T08:29:58;95155.69;;;23.96;57.99
61674;BME280;47573;43.832;5.974;2023-03-23T08:36:40;95169.75;;;24.05;57.38
61674;BME280;47573;43.832;5.974;2023-03-23T08:43:21;95166.31;;;24.14;57.34
61674;BME280;47573;43.832;5.974;2023-03-23T08:50:02;95172.66;;;24.20;57.23
61674;BME280;47573;43.832;5.974;2023-03-23T08:56:44;95188.66;;;24.33;56.55
61674;BME280;47573;43.832;5.974;2023-03-23T09:03:24;95193.09;;;24.39;56.56
61674;BME280;47573;43.832;5.974;2023-03-23T09:10:06;95207.44;;;24.51;56.42
61674;BME280;47573;43.832;5.974;2023-03-23T09:16:48;95209.16;;;24.62;55.87
61674;BME280;47573;43.832;5.974;2023-03-23T09:23:29;95202.09;;;24.61;56.10
61674;BME280;47573;43.832;5.974;2023-03-23T09:30:12;95212.03;;;24.72;55.95
61674;BME280;47573;43.832;5.974;2023-03-23T09:36:55;95203.41;;;24.80;55.41
61674;BME280;47573;43.832;5.974;2023-03-23T09:43:43;95199.56;;;24.76;55.81
61674;BME280;47573;43.832;5.974;2023-03-23T09:50:29;95183.78;;;24.83;55.44
61674;BME280;47573;43.832;5.974;2023-03-23T09:57:15;95196.38;;;24.89;55.65
61674;BME280;47573;43.832;5.974;2023-03-23T10:04:02;95190.69;;;24.91;55.69
61674;BME280;47573;43.832;5.974;2023-03-23T10:10:51;95195.13;;;24.97;55.65
61674;BME280;47573;43.832;5.974;2023-03-23T10:17:43;95200.88;;;25.00;55.36
61674;BME280;47573;43.832;5.974;2023-03-23T10:24:29;95203.69;;;25.05;55.26
61674;BME280;47573;43.832;5.974;2023-03-23T10:31:17;95201.44;;;25.02;55.50
61674;BME280;47573;43.832;5.974;2023-03-23T10:38:02;95213.56;;;25.11;54.95
61674;BME280;47573;43.832;5.974;2023-03-23T10:44:44;95214.69;;;25.15;55.15
61674;BME280;47573;43.832;5.974;2023-03-23T10:51:28;95222.63;;;25.17;55.09
61674;BME280;47573;43.832;5.974;2023-03-23T10:58:21;95239.31;;;25.20;55.31
61674;BME280;47573;43.832;5.974;2023-03-23T11:05:04;95228.94;;;25.22;55.04
61674;BME280;47573;43.832;5.974;2023-03-23T11:11:49;95218.28;;;25.21;55.13
61674;BME280;47573;43.832;5.974;2023-03-23T11:18:37;95223.75;;;25.21;55.17
61674;BME280;47573;43.832;5.974;2023-03-23T11:25:18;95219.63;;;25.18;55.21
61674;BME280;47573;43.832;5.974;2023-03-23T11:32:04;95218.28;;;25.21;55.23
61674;BME280;47573;43.832;5.974;2023-03-23T11:38:47;95220.72;;;25.17;55.33
61674;BME280;47573;43.832;5.974;2023-03-23T11:45:33;95208.19;;;25.21;55.69
61674;BME280;47573;43.832;5.974;2023-03-23T11:52:21;95197.56;;;25.25;55.36
61674;BME280;47573;43.832;5.974;2023-03-23T11:59:10;95190.75;;;25.27;55.58
61674;BME280;47573;43.832;5.974;2023-03-23T12:05:54;95179.31;;;25.30;55.50
61674;BME280;47573;43.832;5.974;2023-03-23T12:12:43;95156.91;;;25.33;55.16
61674;BME280;47573;43.832;5.974;2023-03-23T12:19:33;95159.63;;;25.28;55.47
61674;BME280;47573;43.832;5.974;2023-03-23T12:26:19;95165.66;;;25.35;55.33
61674;BME280;47573;43.832;5.974;2023-03-23T12:33:18;95153.06;;;25.29;55.34
61674;BME280;47573;43.832;5.974;2023-03-23T12:40:19;95147.63;;;25.34;55.14
61674;BME280;47573;43.832;5.974;2023-03-23T12:47:26;95148.25;;;25.41;55.44
61674;BME280;47573;43.832;5.974;2023-03-23T12:54:14;95142.78;;;25.41;55.27
61674;BME280;47573;43.832;5.974;2023-03-23T13:01:01;95126.38;;;25.41;55.39
61674;BME280;47573;43.832;5.974;2023-03-23T13:07:48;95120.09;;;25.41;55.33
61674;BME280;47573;43.832;5.974;2023-03-23T13:14:39;95106.75;;;25.49;54.93
61674;BME280;47573;43.832;5.974;2023-03-23T13:21:25;95110.03;;;25.51;55.13
61674;BME280;47573;43.832;5.974;2023-03-23T13:28:14;95111.66;;;25.42;55.42
61674;BME280;47573;43.832;5.974;2023-03-23T13:34:55;95104.56;;;25.46;55.67
61674;BME280;47573;43.832;5.974;2023-03-23T13:41:47;95109.75;;;25.48;55.40
61674;BME280;47573;43.832;5.974;2023-03-23T13:48:28;95088.72;;;25.48;55.36
61674;BME280;47573;43.832;5.974;2023-03-23T13:55:19;95088.72;;;25.48;55.43
61674;BME280;47573;43.832;5.974;2023-03-23T14:02:28;95081.31;;;25.44;55.68
61674;BME280;47573;43.832;5.974;2023-03-23T14:09:13;95080.56;;;25.59;55.72
61674;BME280;47573;43.832;5.974;2023-03-23T14:15:58;95067.47;;;25.61;55.52
61674;BME280;47573;43.832;5.974;2023-03-23T14:22:40;95069.06;;;25.57;56.00
61674;BME280;47573;43.832;5.974;2023-03-23T14:29:21;95061.47;;;25.69;55.85
61674;BME280;47573;43.832;5.974;2023-03-23T14:36:03;95060.91;;;25.62;55.84
61674;BME280;47573;43.832;5.974;2023-03-23T14:42:46;95062.53;;;25.63;56.17
61674;BME280;47573;43.832;5.974;2023-03-23T14:49:29;95061.44;;;25.59;56.12
61674;BME280;47573;43.832;5.974;2023-03-23T14:56:13;95059.78;;;25.58;55.93
61674;BME280;47573;43.832;5.974;2023-03-23T15:02:56;95054.31;;;25.58;56.27
61674;BME280;47573;43.832;5.974;2023-03-23T15:09:41;95056.47;;;25.56;56.61
61674;BME280;47573;43.832;5.974;2023-03-23T15:16:25;95070.69;;;25.52;56.92
61674;BME280;47573;43.832;5.974;2023-03-23T15:23:14;95064.13;;;25.53;56.99
61674;BME280;47573;43.832;5.974;2023-03-23T15:29:56;95050.22;;;25.55;56.75
61674;BME280;47573;43.832;5.974;2023-03-23T15:36:37;95051.59;;;25.63;56.87
61674;BME280;47573;43.832;5.974;2023-03-23T15:43:21;95051.00;;;25.56;57.30
61674;BME280;47573;43.832;5.974;2023-03-23T15:50:04;95060.31;;;25.55;57.31
61674;BME280;47573;43.832;5.974;2023-03-23T15:56:48;95069.03;;;25.51;57.57
61674;BME280;47573;43.832;5.974;2023-03-23T16:03:35;95054.28;;;25.52;57.69
61674;BME280;47573;43.832;5.974;2023-03-23T16:10:19;95075.66;;;25.61;57.30
61674;BME280;47573;43.832;5.974;2023-03-23T16:17:00;95068.47;;;25.49;57.77
61674;BME280;47573;43.832;5.974;2023-03-23T16:23:42;95073.38;;;25.47;57.80
61674;BME280;47573;43.832;5.974;2023-03-23T16:30:26;95078.31;;;25.45;57.92
61674;BME280;47573;43.832;5.974;2023-03-23T16:37:09;95079.97;;;25.51;57.67
61674;BME280;47573;43.832;5.974;2023-03-23T16:43:51;95096.38;;;25.51;57.63
61674;BME280;47573;43.832;5.974;2023-03-23T16:50:32;95098.53;;;25.44;57.81
61674;BME280;47573;43.832;5.974;2023-03-23T16:57:13;95103.50;;;25.58;57.46
61674;BME280;47573;43.832;5.974;2023-03-23T17:03:55;95097.47;;;25.50;58.09
61674;BME280;47573;43.832;5.974;2023-03-23T17:10:37;95111.09;;;25.45;58.13
61674;BME280;47573;43.832;5.974;2023-03-23T17:17:18;95127.00;;;25.53;58.11
61674;BME280;47573;43.832;5.974;2023-03-23T17:24:00;95119.88;;;25.47;58.20
61674;BME280;47573;43.832;5.974;2023-03-23T17:30:41;95134.66;;;25.51;58.26
61674;BME280;47573;43.832;5.974;2023-03-23T17:37:22;95134.06;;;25.44;58.38
61674;BME280;47573;43.832;5.974;2023-03-23T17:44:04;95147.75;;;25.44;58.14
61674;BME280;47573;43.832;5.974;2023-03-23T17:50:46;95146.41;;;25.47;58.28
61674;BME280;47573;43.832;5.974;2023-03-23T17:57:26;95163.00;;;25.40;58.04
61674;BME280;47573;43.832;5.974;2023-03-23T18:04:08;95164.16;;;25.44;58.48
61674;BME280;47573;43.832;5.974;2023-03-23T18:10:49;95163.88;;;25.46;58.24
61674;BME280;47573;43.832;5.974;2023-03-23T18:17:30;95164.72;;;25.51;58.57
61674;BME280;47573;43.832;5.974;2023-03-23T18:24:12;95170.28;;;25.62;57.86
61674;BME280;47573;43.832;5.974;2023-03-23T18:30:52;95187.81;;;25.66;57.79
61674;BME280;47573;43.832;5.974;2023-03-23T18:37:33;95185.03;;;25.61;57.70
61674;BME280;47573;43.832;5.974;2023-03-23T18:44:15;95188.84;;;25.60;57.83
61674;BME280;47573;43.832;5.974;2023-03-23T18:50:58;95200.88;;;25.59;57.91
61674;BME280;47573;43.832;5.974;2023-03-23T18:57:38;95209.84;;;25.54;57.90
61674;BME280;47573;43.832;5.974;2023-03-23T19:04:20;95219.97;;;25.53;57.97
61674;BME280;47573;43.832;5.974;2023-03-23T19:11:02;95219.41;;;25.51;58.18
61674;BME280;47573;43.832;5.974;2023-03-23T19:17:43;95222.94;;;25.47;58.75
61674;BME280;47573;43.832;5.974;2023-03-23T19:24:25;95224.84;;;25.46;58.62
61674;BME280;47573;43.832;5.974;2023-03-23T19:31:06;95218.25;;;25.42;58.42
61674;BME280;47573;43.832;5.974;2023-03-23T19:37:46;95215.53;;;25.47;58.52
61674;BME280;47573;43.832;5.974;2023-03-23T19:44:28;95223.50;;;25.49;58.96
61674;BME280;47573;43.832;5.974;2023-03-23T19:51:10;95228.34;;;25.42;59.61
61674;BME280;47573;43.832;5.974;2023-03-23T19:57:51;95237.97;;;25.49;59.39
61674;BME280;47573;43.832;5.974;2023-03-23T20:04:33;95246.16;;;25.44;59.99
61674;BME280;47573;43.832;5.974;2023-03-23T20:11:16;95239.59;;;25.45;59.77
61674;BME280;47573;43.832;5.974;2023-03-23T20:17:57;95251.06;;;25.42;59.70
61674;BME280;47573;43.832;5.974;2023-03-23T20:24:39;95245.50;;;25.37;60.18
61674;BME280;47573;43.832;5.974;2023-03-23T20:31:23;95243.31;;;25.39;59.82
61674;BME280;47573;43.832;5.974;2023-03-23T20:38:03;95248.78;;;25.39;59.94
61674;BME280;47573;43.832;5.974;2023-03-23T20:44:45;95247.16;;;25.38;59.67
61674;BME280;47573;43.832;5.974;2023-03-23T20:51:26;95252.63;;;25.38;59.61
61674;BME280;47573;43.832;5.974;2023-03-23T20:58:07;95268.84;;;25.45;59.44
61674;BME280;47573;43.832;5.974;2023-03-23T21:04:49;95266.84;;;25.40;59.91
61674;BME280;47573;43.832;5.974;2023-03-23T21:11:29;95260.81;;;25.38;59.65
61674;BME280;47573;43.832;5.974;2023-03-23T21:18:10;95256.97;;;25.34;59.27
61674;BME280;47573;43.832;5.974;2023-03-23T21:24:52;95254.78;;;25.36;59.27
61674;BME280;47573;43.832;5.974;2023-03-23T21:31:33;95267.91;;;25.34;59.64
61674;BME280;47573;43.832;5.974;2023-03-23T21:38:14;95270.06;;;25.32;59.62
61674;BME280;47573;43.832;5.974;2023-03-23T21:44:56;95269.22;;;25.32;59.41
61674;BME280;47573;43.832;5.974;2023-03-23T21:51:37;95272.75;;;25.27;59.99
61674;BME280;47573;43.832;5.974;2023-03-23T21:58:18;95272.75;;;25.27;59.35
61674;BME280;47573;43.832;5.974;2023-03-23T22:05:00;95262.56;;;25.23;59.50
61674;BME280;47573;43.832;5.974;2023-03-23T22:11:40;95272.09;;;25.20;59.94
61674;BME280;47573;43.832;5.974;2023-03-23T22:18:21;95268.31;;;25.21;59.79
61674;BME280;47573;43.832;5.974;2023-03-23T22:25:03;95268.00;;;25.18;59.65
61674;BME280;47573;43.832;5.974;2023-03-23T22:31:44;95260.03;;;25.16;59.43
61674;BME280;47573;43.832;5.974;2023-03-23T22:45:07;95250.16;;;25.10;59.69
61674;BME280;47573;43.832;5.974;2023-03-23T22:51:48;95241.97;;;25.10;59.17
61674;BME280;47573;43.832;5.974;2023-03-23T22:58:29;95232.31;;;25.03;59.28
61674;BME280;47573;43.832;5.974;2023-03-23T23:05:12;95222.22;;;25.03;59.40
61674;BME280;47573;43.832;5.974;2023-03-23T23:11:52;95226.03;;;25.02;59.21
61674;BME280;47573;43.832;5.974;2023-03-23T23:18:34;95238.06;;;25.01;59.11
61674;BME280;47573;43.832;5.974;2023-03-23T23:25:16;95244.59;;;25.00;59.44
61674;BME280;47573;43.832;5.974;2023-03-23T23:31:57;95231.69;;;24.96;59.37
61674;BME280;47573;43.832;5.974;2023-03-23T23:38:37;95224.34;;;24.96;59.34
61674;BME280;47573;43.832;5.974;2023-03-23T23:45:19;95219.94;;;24.95;59.34
61674;BME280;47573;43.832;5.974;2023-03-23T23:52:00;95213.34;;;24.91;59.15
61674;BME280;47573;43.832;5.974;2023-03-23T23:58:40;95223.66;;;24.84;59.28
